sensor_id;sensor_type;location;lat;lon;timestamp;pressure;altitude;pressure_sealevel;temperature
34125;BMP280;20110;53.120;5.786;2023-11-21T00:02:23;100999.19;;;16.27
34125;BMP280;20110;53.120;5.786;2023-11-21T00:04:49;100962.19;;;16.01
34125;BMP280;20110;53.120;5.786;2023-11-21T00:07:15;100945.84;;;15.82
34125;BMP280;20110;53.120;5.786;2023-11-21T00:09:41;100909.31;;;15.61
34125;BMP280;20110;53.120;5.786;2023-11-21T00:12:08;101004.91;;;16.31
34125;BMP280;20110;53.120;5.786;2023-11-21T00:14:39;101004.91;;;16.31
34125;BMP280;20110;53.120;5.786;2023-11-21T00:17:05;101010.75;;;16.30
34125;BMP280;20110;53.120;5.786;2023-11-21T00:19:32;100957.44;;;15.84
34125;BMP280;20110;53.120;5.786;2023-11-21T00:21:58;101004.41;;;16.17
34125;BMP280;20110;53.120;5.786;2023-11-21T00:24:24;100993.91;;;16.12
34125;BMP280;20110;53.120;5.786;2023-11-21T00:26:51;101008.31;;;16.24
34125;BMP280;20110;53.120;5.786;2023-11-21T00:29:17;101008.84;;;16.23
34125;BMP280;20110;53.120;5.786;2023-11-21T00:31:44;100947.66;;;15.79
34125;BMP280;20110;53.120;5.786;2023-11-21T00:34:11;100977.50;;;16.08
34125;BMP280;20110;53.120;5.786;2023-11-21T00:36:37;100991.38;;;16.14
34125;BMP280;20110;53.120;5.786;2023-11-21T00:39:03;100975.41;;;15.99
34125;BMP280;20110;53.120;5.786;2023-11-21T00:41:29;101017.38;;;16.29
34125;BMP280;20110;53.120;5.786;2023-11-21T00:43:55;101003.69;;;16.17
34125;BMP280;20110;53.120;5.786;2023-11-21T00:46:21;101013.84;;;16.26
34125;BMP280;20110;53.120;5.786;2023-11-21T00:48:46;101014.91;;;16.31
34125;BMP280;20110;53.120;5.786;2023-11-21T00:51:12;101008.63;;;16.28
34125;BMP280;20110;53.120;5.786;2023-11-21T00:53:38;100989.97;;;16.13
34125;BMP280;20110;53.120;5.786;2023-11-21T00:56:05;101023.66;;;16.31
34125;BMP280;20110;53.120;5.786;2023-11-21T00:58:30;100976.47;;;15.96
34125;BMP280;20110;53.120;5.786;2023-11-21T01:00:56;101032.69;;;16.43
34125;BMP280;20110;53.120;5.786;2023-11-21T01:03:23;101031.22;;;16.50
34125;BMP280;20110;53.120;5.786;2023-11-21T01:05:49;101025.69;;;16.48
34125;BMP280;20110;53.120;5.786;2023-11-21T01:08:15;100971.97;;;16.06
34125;BMP280;20110;53.120;5.786;2023-11-21T01:10:41;100985.69;;;16.10
34125;BMP280;20110;53.120;5.786;2023-11-21T01:13:07;101028.03;;;16.44
34125;BMP280;20110;53.120;5.786;2023-11-21T01:15:33;101043.00;;;16.54
34125;BMP280;20110;53.120;5.786;2023-11-21T01:17:59;101031.56;;;16.46
34125;BMP280;20110;53.120;5.786;2023-11-21T01:20:25;101045.09;;;16.56
34125;BMP280;20110;53.120;5.786;2023-11-21T01:22:51;101044.78;;;16.52
34125;BMP280;20110;53.120;5.786;2023-11-21T01:25:17;101042.28;;;16.54
34125;BMP280;20110;53.120;5.786;2023-11-21T01:27:43;101051.41;;;16.76
34125;BMP280;20110;53.120;5.786;2023-11-21T01:30:09;101064.72;;;16.91
34125;BMP280;20110;53.120;5.786;2023-11-21T01:32:36;101057.75;;;16.88
34125;BMP280;20110;53.120;5.786;2023-11-21T01:35:03;101061.25;;;16.98
34125;BMP280;20110;53.120;5.786;2023-11-21T01:37:30;101051.31;;;16.91
34125;BMP280;20110;53.120;5.786;2023-11-21T01:39:56;101049.09;;;16.97
34125;BMP280;20110;53.120;5.786;2023-11-21T01:42:22;101035.00;;;16.97
34125;BMP280;20110;53.120;5.786;2023-11-21T01:44:48;101047.63;;;17.04
34125;BMP280;20110;53.120;5.786;2023-11-21T01:47:14;101072.28;;;17.27
34125;BMP280;20110;53.120;5.786;2023-11-21T01:49:43;101065.50;;;17.26
34125;BMP280;20110;53.120;5.786;2023-11-21T01:52:09;101078.94;;;17.43
34125;BMP280;20110;53.120;5.786;2023-11-21T01:54:37;101071.38;;;17.49
34125;BMP280;20110;53.120;5.786;2023-11-21T01:57:04;101055.97;;;17.33
34125;BMP280;20110;53.120;5.786;2023-11-21T01:59:36;101049.72;;;17.30
34125;BMP280;20110;53.120;5.786;2023-11-21T02:02:06;101086.69;;;17.56
34125;BMP280;20110;53.120;5.786;2023-11-21T02:04:33;101070.13;;;17.50
34125;BMP280;20110;53.120;5.786;2023-11-21T02:06:59;101096.34;;;17.77
34125;BMP280;20110;53.120;5.786;2023-11-21T02:09:27;101055.56;;;17.53
34125;BMP280;20110;53.120;5.786;2023-11-21T02:11:53;101083.47;;;17.75
34125;BMP280;20110;53.120;5.786;2023-11-21T02:14:27;101106.88;;;17.92
34125;BMP280;20110;53.120;5.786;2023-11-21T02:16:54;101104.41;;;17.94
34125;BMP280;20110;53.120;5.786;2023-11-21T02:19:21;101099.78;;;17.87
34125;BMP280;20110;53.120;5.786;2023-11-21T02:21:56;101108.16;;;17.91
34125;BMP280;20110;53.120;5.786;2023-11-21T02:24:28;101102.47;;;17.87
34125;BMP280;20110;53.120;5.786;2023-11-21T02:26:54;101110.06;;;17.98
34125;BMP280;20110;53.120;5.786;2023-11-21T02:29:21;101076.53;;;17.72
34125;BMP280;20110;53.120;5.786;2023-11-21T02:31:54;101114.88;;;17.99
34125;BMP280;20110;53.120;5.786;2023-11-21T02:34:21;101104.53;;;17.96
34125;BMP280;20110;53.120;5.786;2023-11-21T02:36:47;101104.13;;;17.99
34125;BMP280;20110;53.120;5.786;2023-11-21T02:39:17;101101.13;;;17.95
34125;BMP280;20110;53.120;5.786;2023-11-21T02:41:43;101113.75;;;18.02
34125;BMP280;20110;53.120;5.786;2023-11-21T02:44:10;101049.66;;;17.55
34125;BMP280;20110;53.120;5.786;2023-11-21T02:46:36;101114.00;;;17.97
34125;BMP280;20110;53.120;5.786;2023-11-21T02:49:03;101036.41;;;17.40
34125;BMP280;20110;53.120;5.786;2023-11-21T02:51:30;101096.09;;;17.82
34125;BMP280;20110;53.120;5.786;2023-11-21T02:53:57;101012.31;;;17.32
34125;BMP280;20110;53.120;5.786;2023-11-21T02:56:26;101105.94;;;17.97
34125;BMP280;20110;53.120;5.786;2023-11-21T02:58:54;101097.41;;;17.91
34125;BMP280;20110;53.120;5.786;2023-11-21T03:01:20;101054.88;;;17.53
34125;BMP280;20110;53.120;5.786;2023-11-21T03:03:46;101109.91;;;17.96
34125;BMP280;20110;53.120;5.786;2023-11-21T03:06:13;101115.56;;;18.00
34125;BMP280;20110;53.120;5.786;2023-11-21T03:08:38;101125.59;;;17.99
34125;BMP280;20110;53.120;5.786;2023-11-21T03:11:04;101107.75;;;17.77
34125;BMP280;20110;53.120;5.786;2023-11-21T03:13:30;101124.28;;;17.91
34125;BMP280;20110;53.120;5.786;2023-11-21T03:15:56;101118.50;;;17.77
34125;BMP280;20110;53.120;5.786;2023-11-21T03:18:21;101100.91;;;17.66
34125;BMP280;20110;53.120;5.786;2023-11-21T03:20:52;101084.22;;;17.51
34125;BMP280;20110;53.120;5.786;2023-11-21T03:23:18;101126.66;;;17.87
34125;BMP280;20110;53.120;5.786;2023-11-21T03:25:43;101094.19;;;17.58
34125;BMP280;20110;53.120;5.786;2023-11-21T03:28:09;101143.66;;;17.89
34125;BMP280;20110;53.120;5.786;2023-11-21T03:30:35;101137.00;;;17.90
34125;BMP280;20110;53.120;5.786;2023-11-21T03:33:00;101142.94;;;17.89
34125;BMP280;20110;53.120;5.786;2023-11-21T03:35:26;101110.31;;;17.58
34125;BMP280;20110;53.120;5.786;2023-11-21T03:37:53;101089.69;;;17.43
34125;BMP280;20110;53.120;5.786;2023-11-21T03:40:19;101155.56;;;17.79
34125;BMP280;20110;53.120;5.786;2023-11-21T03:42:47;101151.31;;;17.76
34125;BMP280;20110;53.120;5.786;2023-11-21T03:45:12;101137.16;;;17.58
34125;BMP280;20110;53.120;5.786;2023-11-21T03:47:41;101163.88;;;17.73
34125;BMP280;20110;53.120;5.786;2023-11-21T03:50:07;101173.94;;;17.73
34125;BMP280;20110;53.120;5.786;2023-11-21T03:52:34;101122.50;;;17.34
34125;BMP280;20110;53.120;5.786;2023-11-21T03:55:01;101159.25;;;17.49
34125;BMP280;20110;53.120;5.786;2023-11-21T03:57:27;101139.56;;;17.29
34125;BMP280;20110;53.120;5.786;2023-11-21T03:59:55;101181.78;;;17.53
34125;BMP280;20110;53.120;5.786;2023-11-21T04:02:21;101147.06;;;17.30
34125;BMP280;20110;53.120;5.786;2023-11-21T04:04:46;101186.69;;;17.64
34125;BMP280;20110;53.120;5.786;2023-11-21T04:07:12;101200.38;;;17.76
34125;BMP280;20110;53.120;5.786;2023-11-21T04:09:39;101155.44;;;17.35
34125;BMP280;20110;53.120;5.786;2023-11-21T04:12:07;101222.34;;;17.82
34125;BMP280;20110;53.120;5.786;2023-11-21T04:14:34;101234.84;;;17.87
34125;BMP280;20110;53.120;5.786;2023-11-21T04:17:00;101212.44;;;17.67
34125;BMP280;20110;53.120;5.786;2023-11-21T04:19:25;101240.75;;;17.86
34125;BMP280;20110;53.120;5.786;2023-11-21T04:21:51;101200.78;;;17.48
34125;BMP280;20110;53.120;5.786;2023-11-21T04:24:17;101256.72;;;17.84
34125;BMP280;20110;53.120;5.786;2023-11-21T04:26:43;101252.81;;;17.77
34125;BMP280;20110;53.120;5.786;2023-11-21T04:29:09;101243.25;;;17.66
34125;BMP280;20110;53.120;5.786;2023-11-21T04:31:35;101276.97;;;17.85
34125;BMP280;20110;53.120;5.786;2023-11-21T04:34:00;101280.38;;;17.85
34125;BMP280;20110;53.120;5.786;2023-11-21T04:36:26;101279.84;;;17.79
34125;BMP280;20110;53.120;5.786;2023-11-21T04:38:52;101276.00;;;17.73
34125;BMP280;20110;53.120;5.786;2023-11-21T04:41:17;101250.75;;;17.43
34125;BMP280;20110;53.120;5.786;2023-11-21T04:43:43;101297.94;;;17.79
34125;BMP280;20110;53.120;5.786;2023-11-21T04:46:09;101299.06;;;17.76
34125;BMP280;20110;53.120;5.786;2023-11-21T04:48:34;101232.84;;;17.21
34125;BMP280;20110;53.120;5.786;2023-11-21T04:51:00;101270.81;;;17.42
34125;BMP280;20110;53.120;5.786;2023-11-21T04:53:26;101317.69;;;17.74
34125;BMP280;20110;53.120;5.786;2023-11-21T04:55:51;101327.72;;;17.73
34125;BMP280;20110;53.120;5.786;2023-11-21T04:58:18;101294.44;;;17.44
34125;BMP280;20110;53.120;5.786;2023-11-21T05:00:44;101333.69;;;17.64
34125;BMP280;20110;53.120;5.786;2023-11-21T05:03:10;101279.56;;;17.18
34125;BMP280;20110;53.120;5.786;2023-11-21T05:05:36;101346.97;;;17.62
34125;BMP280;20110;53.120;5.786;2023-11-21T05:08:01;101313.97;;;17.37
34125;BMP280;20110;53.120;5.786;2023-11-21T05:10:28;101360.19;;;17.67
34125;BMP280;20110;53.120;5.786;2023-11-21T05:12:54;101368.22;;;17.67
34125;BMP280;20110;53.120;5.786;2023-11-21T05:15:21;101375.78;;;17.61
34125;BMP280;20110;53.120;5.786;2023-11-21T05:17:47;101367.72;;;17.29
34125;BMP280;20110;53.120;5.786;2023-11-21T05:20:16;101370.22;;;17.27
34125;BMP280;20110;53.120;5.786;2023-11-21T05:22:49;101385.25;;;17.30
34125;BMP280;20110;53.120;5.786;2023-11-21T05:25:15;101360.09;;;17.03
34125;BMP280;20110;53.120;5.786;2023-11-21T05:27:47;101375.81;;;17.14
34125;BMP280;20110;53.120;5.786;2023-11-21T05:30:13;101338.91;;;16.82
34125;BMP280;20110;53.120;5.786;2023-11-21T05:32:40;101389.22;;;17.21
34125;BMP280;20110;53.120;5.786;2023-11-21T05:35:08;101362.63;;;17.01
34125;BMP280;20110;53.120;5.786;2023-11-21T05:37:35;101345.69;;;16.83
34125;BMP280;20110;53.120;5.786;2023-11-21T05:40:01;101401.06;;;17.18
34125;BMP280;20110;53.120;5.786;2023-11-21T05:42:32;101405.50;;;17.16
34125;BMP280;20110;53.120;5.786;2023-11-21T05:44:58;101400.91;;;17.09
34125;BMP280;20110;53.120;5.786;2023-11-21T05:47:45;101358.81;;;16.64
34125;BMP280;20110;53.120;5.786;2023-11-21T05:50:13;101411.31;;;16.89
34125;BMP280;20110;53.120;5.786;2023-11-21T05:52:46;101326.13;;;16.27
34125;BMP280;20110;53.120;5.786;2023-11-21T05:55:12;101380.03;;;16.62
34125;BMP280;20110;53.120;5.786;2023-11-21T05:57:39;101424.38;;;16.85
34125;BMP280;20110;53.120;5.786;2023-11-21T06:00:06;101432.94;;;16.84
34125;BMP280;20110;53.120;5.786;2023-11-21T06:02:40;101420.09;;;16.67
34125;BMP280;20110;53.120;5.786;2023-11-21T06:05:09;101387.22;;;16.44
34125;BMP280;20110;53.120;5.786;2023-11-21T06:07:35;101451.91;;;16.86
34125;BMP280;20110;53.120;5.786;2023-11-21T06:10:07;101465.13;;;16.84
34125;BMP280;20110;53.120;5.786;2023-11-21T06:12:37;101473.16;;;16.84
34125;BMP280;20110;53.120;5.786;2023-11-21T06:15:04;101470.16;;;16.80
34125;BMP280;20110;53.120;5.786;2023-11-21T06:17:37;101444.06;;;16.58
34125;BMP280;20110;53.120;5.786;2023-11-21T06:20:03;101472.13;;;16.79
34125;BMP280;20110;53.120;5.786;2023-11-21T06:22:41;101476.22;;;16.73
34125;BMP280;20110;53.120;5.786;2023-11-21T06:25:08;101492.16;;;16.78
34125;BMP280;20110;53.120;5.786;2023-11-21T06:27:37;101490.53;;;16.75
34125;BMP280;20110;53.120;5.786;2023-11-21T06:30:04;101487.16;;;16.75
34125;BMP280;20110;53.120;5.786;2023-11-21T06:32:30;101455.50;;;16.50
34125;BMP280;20110;53.120;5.786;2023-11-21T06:34:59;101485.72;;;16.66
34125;BMP280;20110;53.120;5.786;2023-11-21T06:37:26;101488.03;;;16.70
34125;BMP280;20110;53.120;5.786;2023-11-21T06:39:53;101470.00;;;16.55
34125;BMP280;20110;53.120;5.786;2023-11-21T06:42:19;101510.94;;;16.78
34125;BMP280;20110;53.120;5.786;2023-11-21T06:44:45;101518.06;;;16.83
34125;BMP280;20110;53.120;5.786;2023-11-21T06:47:11;101521.81;;;16.80
34125;BMP280;20110;53.120;5.786;2023-11-21T06:49:37;101520.19;;;16.70
34125;BMP280;20110;53.120;5.786;2023-11-21T06:52:04;101527.56;;;16.69
34125;BMP280;20110;53.120;5.786;2023-11-21T06:54:33;101547.06;;;16.77
34125;BMP280;20110;53.120;5.786;2023-11-21T06:57:00;101525.94;;;16.59
34125;BMP280;20110;53.120;5.786;2023-11-21T06:59:28;101554.19;;;16.67
34125;BMP280;20110;53.120;5.786;2023-11-21T07:01:54;101560.63;;;16.72
34125;BMP280;20110;53.120;5.786;2023-11-21T07:04:22;101564.41;;;16.76
34125;BMP280;20110;53.120;5.786;2023-11-21T07:06:47;101556.16;;;16.67
34125;BMP280;20110;53.120;5.786;2023-11-21T07:09:13;101553.09;;;16.63
34125;BMP280;20110;53.120;5.786;2023-11-21T07:11:39;101576.56;;;16.77
34125;BMP280;20110;53.120;5.786;2023-11-21T07:14:05;101504.25;;;16.26
34125;BMP280;20110;53.120;5.786;2023-11-21T07:16:38;101572.25;;;16.67
34125;BMP280;20110;53.120;5.786;2023-11-21T07:19:04;101579.22;;;16.70
34125;BMP280;20110;53.120;5.786;2023-11-21T07:21:32;101565.59;;;16.52
34125;BMP280;20110;53.120;5.786;2023-11-21T07:24:01;101562.34;;;16.39
34125;BMP280;20110;53.120;5.786;2023-11-21T07:26:27;101615.88;;;16.67
34125;BMP280;20110;53.120;5.786;2023-11-21T07:28:54;101599.00;;;16.44
34125;BMP280;20110;53.120;5.786;2023-11-21T07:31:19;101594.31;;;16.37
34125;BMP280;20110;53.120;5.786;2023-11-21T07:33:46;101603.28;;;16.32
34125;BMP280;20110;53.120;5.786;2023-11-21T07:36:15;101586.78;;;16.20
34125;BMP280;20110;53.120;5.786;2023-11-21T07:38:42;101605.91;;;16.24
34125;BMP280;20110;53.120;5.786;2023-11-21T07:41:08;101574.31;;;15.94
34125;BMP280;20110;53.120;5.786;2023-11-21T07:43:35;101588.47;;;16.02
34125;BMP280;20110;53.120;5.786;2023-11-21T07:46:04;101614.94;;;16.13
34125;BMP280;20110;53.120;5.786;2023-11-21T07:48:31;101621.75;;;16.14
34125;BMP280;20110;53.120;5.786;2023-11-21T07:50:57;101649.69;;;16.27
34125;BMP280;20110;53.120;5.786;2023-11-21T07:53:27;101680.16;;;16.44
34125;BMP280;20110;53.120;5.786;2023-11-21T07:56:06;101692.84;;;16.44
34125;BMP280;20110;53.120;5.786;2023-11-21T07:58:32;101628.84;;;16.04
34125;BMP280;20110;53.120;5.786;2023-11-21T08:01:01;101682.03;;;16.29
34125;BMP280;20110;53.120;5.786;2023-11-21T08:03:27;101686.53;;;16.34
34125;BMP280;20110;53.120;5.786;2023-11-21T08:05:54;101660.50;;;16.13
34125;BMP280;20110;53.120;5.786;2023-11-21T08:08:20;101685.06;;;16.25
34125;BMP280;20110;53.120;5.786;2023-11-21T08:10:46;101702.56;;;16.26
34125;BMP280;20110;53.120;5.786;2023-11-21T08:13:14;101717.09;;;16.31
34125;BMP280;20110;53.120;5.786;2023-11-21T08:15:41;101729.06;;;16.37
34125;BMP280;20110;53.120;5.786;2023-11-21T08:18:11;101716.34;;;16.30
34125;BMP280;20110;53.120;5.786;2023-11-21T08:20:38;101646.94;;;15.83
34125;BMP280;20110;53.120;5.786;2023-11-21T08:23:05;101663.13;;;15.98
34125;BMP280;20110;53.120;5.786;2023-11-21T08:25:32;101740.25;;;16.57
34125;BMP280;20110;53.120;5.786;2023-11-21T08:27:58;101662.63;;;16.07
34125;BMP280;20110;53.120;5.786;2023-11-21T08:30:24;101715.16;;;16.46
34125;BMP280;20110;53.120;5.786;2023-11-21T08:32:51;101720.97;;;16.58
34125;BMP280;20110;53.120;5.786;2023-11-21T08:35:19;101736.19;;;16.71
34125;BMP280;20110;53.120;5.786;2023-11-21T08:37:45;101745.50;;;16.70
34125;BMP280;20110;53.120;5.786;2023-11-21T08:40:11;101695.81;;;16.33
34125;BMP280;20110;53.120;5.786;2023-11-21T08:42:42;101685.41;;;16.22
34125;BMP280;20110;53.120;5.786;2023-11-21T08:45:08;101747.59;;;16.56
34125;BMP280;20110;53.120;5.786;2023-11-21T08:47:35;101758.72;;;16.68
34125;BMP280;20110;53.120;5.786;2023-11-21T08:50:02;101765.16;;;16.65
34125;BMP280;20110;53.120;5.786;2023-11-21T08:52:28;101752.94;;;16.56
34125;BMP280;20110;53.120;5.786;2023-11-21T08:54:54;101767.31;;;16.66
34125;BMP280;20110;53.120;5.786;2023-11-21T08:57:23;101746.09;;;16.47
34125;BMP280;20110;53.120;5.786;2023-11-21T08:59:48;101769.63;;;16.70
34125;BMP280;20110;53.120;5.786;2023-11-21T09:02:14;101734.25;;;16.35
34125;BMP280;20110;53.120;5.786;2023-11-21T09:04:40;101745.88;;;16.38
34125;BMP280;20110;53.120;5.786;2023-11-21T09:07:05;101760.44;;;16.50
34125;BMP280;20110;53.120;5.786;2023-11-21T09:09:31;101786.63;;;16.65
34125;BMP280;20110;53.120;5.786;2023-11-21T09:11:57;101787.88;;;16.64
34125;BMP280;20110;53.120;5.786;2023-11-21T09:14:22;101752.66;;;16.39
34125;BMP280;20110;53.120;5.786;2023-11-21T09:16:49;101764.88;;;16.47
34125;BMP280;20110;53.120;5.786;2023-11-21T09:19:16;101799.38;;;16.79
34125;BMP280;20110;53.120;5.786;2023-11-21T09:21:41;101690.09;;;16.00
34125;BMP280;20110;53.120;5.786;2023-11-21T09:24:07;101820.56;;;16.98
34125;BMP280;20110;53.120;5.786;2023-11-21T09:26:34;101786.50;;;16.78
34125;BMP280;20110;53.120;5.786;2023-11-21T09:29:00;101792.97;;;16.90
34125;BMP280;20110;53.120;5.786;2023-11-21T09:31:27;101821.91;;;17.20
34125;BMP280;20110;53.120;5.786;2023-11-21T09:33:53;101778.19;;;16.97
34125;BMP280;20110;53.120;5.786;2023-11-21T09:36:19;101845.59;;;17.44
34125;BMP280;20110;53.120;5.786;2023-11-21T09:38:44;101842.03;;;17.42
34125;BMP280;20110;53.120;5.786;2023-11-21T09:44:11;101810.78;;;17.16
34125;BMP280;20110;53.120;5.786;2023-11-21T09:46:41;101844.31;;;17.38
34125;BMP280;20110;53.120;5.786;2023-11-21T09:49:09;101867.28;;;17.46
34125;BMP280;20110;53.120;5.786;2023-11-21T09:51:42;101848.06;;;17.35
34125;BMP280;20110;53.120;5.786;2023-11-21T09:54:10;101871.44;;;17.55
34125;BMP280;20110;53.120;5.786;2023-11-21T09:56:40;101893.09;;;17.64
34125;BMP280;20110;53.120;5.786;2023-11-21T09:59:06;101847.00;;;17.30
34125;BMP280;20110;53.120;5.786;2023-11-21T10:01:38;101882.41;;;17.72
34125;BMP280;20110;53.120;5.786;2023-11-21T10:04:04;101878.09;;;17.77
34125;BMP280;20110;53.120;5.786;2023-11-21T10:06:40;101904.81;;;18.05
34125;BMP280;20110;53.120;5.786;2023-11-21T10:09:12;101887.25;;;17.89
34125;BMP280;20110;53.120;5.786;2023-11-21T10:11:42;101926.47;;;17.99
34125;BMP280;20110;53.120;5.786;2023-11-21T10:14:12;101913.03;;;17.92
34125;BMP280;20110;53.120;5.786;2023-11-21T10:16:41;101897.06;;;17.79
34125;BMP280;20110;53.120;5.786;2023-11-21T10:19:10;101905.66;;;17.77
34125;BMP280;20110;53.120;5.786;2023-11-21T10:21:38;101910.34;;;17.77
34125;BMP280;20110;53.120;5.786;2023-11-21T10:24:04;101922.84;;;17.74
34125;BMP280;20110;53.120;5.786;2023-11-21T10:26:31;101939.53;;;17.88
34125;BMP280;20110;53.120;5.786;2023-11-21T10:28:58;101871.00;;;17.36
34125;BMP280;20110;53.120;5.786;2023-11-21T10:31:27;101926.09;;;17.73
34125;BMP280;20110;53.120;5.786;2023-11-21T10:33:53;101934.84;;;17.73
34125;BMP280;20110;53.120;5.786;2023-11-21T10:36:26;101942.38;;;17.67
34125;BMP280;20110;53.120;5.786;2023-11-21T10:38:53;101931.19;;;17.55
34125;BMP280;20110;53.120;5.786;2023-11-21T10:41:20;101887.75;;;17.21
34125;BMP280;20110;53.120;5.786;2023-11-21T10:43:46;101955.75;;;17.59
34125;BMP280;20110;53.120;5.786;2023-11-21T10:46:12;101940.47;;;17.39
34125;BMP280;20110;53.120;5.786;2023-11-21T10:48:41;101943.13;;;17.31
34125;BMP280;20110;53.120;5.786;2023-11-21T10:51:08;101928.94;;;17.23
34125;BMP280;20110;53.120;5.786;2023-11-21T10:53:39;101956.06;;;17.41
34125;BMP280;20110;53.120;5.786;2023-11-21T10:56:08;101953.38;;;17.41
34125;BMP280;20110;53.120;5.786;2023-11-21T10:58:37;101963.16;;;17.38
34125;BMP280;20110;53.120;5.786;2023-11-21T11:01:05;101968.25;;;17.42
34125;BMP280;20110;53.120;5.786;2023-11-21T11:03:32;101951.53;;;17.36
34125;BMP280;20110;53.120;5.786;2023-11-21T11:05:59;101976.84;;;17.48
34125;BMP280;20110;53.120;5.786;2023-11-21T11:08:26;101979.53;;;17.48
34125;BMP280;20110;53.120;5.786;2023-11-21T11:10:53;101978.66;;;17.53
34125;BMP280;20110;53.120;5.786;2023-11-21T11:13:18;101986.97;;;17.78
34125;BMP280;20110;53.120;5.786;2023-11-21T11:15:47;101971.06;;;17.87
34125;BMP280;20110;53.120;5.786;2023-11-21T11:18:13;101997.81;;;17.93
34125;BMP280;20110;53.120;5.786;2023-11-21T11:20:40;101925.72;;;17.25
34125;BMP280;20110;53.120;5.786;2023-11-21T11:23:32;102000.41;;;17.78
34125;BMP280;20110;53.120;5.786;2023-11-21T11:29:18;101989.47;;;17.68
34125;BMP280;20110;53.120;5.786;2023-11-21T11:32:13;101982.53;;;17.88
34125;BMP280;20110;53.120;5.786;2023-11-21T11:34:47;102006.38;;;17.99
34125;BMP280;20110;53.120;5.786;2023-11-21T11:37:15;102013.75;;;17.98
34125;BMP280;20110;53.120;5.786;2023-11-21T11:39:42;102014.50;;;18.06
34125;BMP280;20110;53.120;5.786;2023-11-21T11:42:12;101997.72;;;18.36
34125;BMP280;20110;53.120;5.786;2023-11-21T11:50:10;102034.56;;;19.75
34125;BMP280;20110;53.120;5.786;2023-11-21T11:55:12;102025.19;;;19.43
34125;BMP280;20110;53.120;5.786;2023-11-21T11:57:52;102038.63;;;19.51
34125;BMP280;20110;53.120;5.786;2023-11-21T12:00:21;102035.84;;;19.18
34125;BMP280;20110;53.120;5.786;2023-11-21T12:02:52;102032.69;;;18.59
34125;BMP280;20110;53.120;5.786;2023-11-21T12:05:20;102041.97;;;18.28
34125;BMP280;20110;53.120;5.786;2023-11-21T12:07:48;102022.25;;;18.25
34125;BMP280;20110;53.120;5.786;2023-11-21T12:10:15;101982.47;;;18.46
34125;BMP280;20110;53.120;5.786;2023-11-21T12:12:57;102030.34;;;18.94
34125;BMP280;20110;53.120;5.786;2023-11-21T12:15:24;102048.03;;;19.35
34125;BMP280;20110;53.120;5.786;2023-11-21T12:17:51;102058.41;;;19.46
34125;BMP280;20110;53.120;5.786;2023-11-21T12:20:22;102055.16;;;19.55
34125;BMP280;20110;53.120;5.786;2023-11-21T12:22:50;102029.53;;;19.31
34125;BMP280;20110;53.120;5.786;2023-11-21T12:25:29;102029.34;;;19.21
34125;BMP280;20110;53.120;5.786;2023-11-21T12:27:58;102054.41;;;19.54
34125;BMP280;20110;53.120;5.786;2023-11-21T12:30:29;102060.06;;;19.81
34125;BMP280;20110;53.120;5.786;2023-11-21T12:32:57;102070.41;;;19.92
34125;BMP280;20110;53.120;5.786;2023-11-21T12:35:27;102048.75;;;19.35
34125;BMP280;20110;53.120;5.786;2023-11-21T12:37:54;102066.38;;;19.13
34125;BMP280;20110;53.120;5.786;2023-11-21T12:40:21;102072.53;;;18.91
34125;BMP280;20110;53.120;5.786;2023-11-21T12:42:50;102079.69;;;18.58
34125;BMP280;20110;53.120;5.786;2023-11-21T12:47:56;102103.63;;;18.26
34125;BMP280;20110;53.120;5.786;2023-11-21T12:50:26;102102.50;;;18.06
34125;BMP280;20110;53.120;5.786;2023-11-21T12:52:58;102079.72;;;17.63
34125;BMP280;20110;53.120;5.786;2023-11-21T12:55:25;102113.22;;;17.70
34125;BMP280;20110;53.120;5.786;2023-11-21T12:57:53;102114.03;;;17.50
34125;BMP280;20110;53.120;5.786;2023-11-21T13:00:31;102122.88;;;17.37
34125;BMP280;20110;53.120;5.786;2023-11-21T13:02:59;102121.44;;;17.15
34125;BMP280;20110;53.120;5.786;2023-11-21T13:05:30;102130.94;;;17.16
34125;BMP280;20110;53.120;5.786;2023-11-21T13:07:57;102126.69;;;17.21
34125;BMP280;20110;53.120;5.786;2023-11-21T13:10:25;102128.00;;;17.27
34125;BMP280;20110;53.120;5.786;2023-11-21T13:12:55;102136.88;;;17.43
34125;BMP280;20110;53.120;5.786;2023-11-21T13:15:27;102140.41;;;17.59
34125;BMP280;20110;53.120;5.786;2023-11-21T13:17:54;102145.50;;;17.78
34125;BMP280;20110;53.120;5.786;2023-11-21T13:20:21;102143.00;;;17.72
34125;BMP280;20110;53.120;5.786;2023-11-21T13:22:52;102111.09;;;17.40
34125;BMP280;20110;53.120;5.786;2023-11-21T13:25:30;102126.22;;;17.30
34125;BMP280;20110;53.120;5.786;2023-11-21T13:28:00;102145.22;;;17.11
34125;BMP280;20110;53.120;5.786;2023-11-21T13:30:29;102135.66;;;17.03
34125;BMP280;20110;53.120;5.786;2023-11-21T13:33:04;102111.94;;;16.93
34125;BMP280;20110;53.120;5.786;2023-11-21T13:35:37;102148.44;;;17.30
34125;BMP280;20110;53.120;5.786;2023-11-21T13:38:09;102144.03;;;17.41
34125;BMP280;20110;53.120;5.786;2023-11-21T13:40:35;102146.59;;;17.46
34125;BMP280;20110;53.120;5.786;2023-11-21T13:43:13;102172.44;;;17.57
34125;BMP280;20110;53.120;5.786;2023-11-21T13:45:40;102158.97;;;17.49
34125;BMP280;20110;53.120;5.786;2023-11-21T13:48:08;102168.38;;;17.63
34125;BMP280;20110;53.120;5.786;2023-11-21T13:50:37;102182.19;;;17.96
34125;BMP280;20110;53.120;5.786;2023-11-21T13:53:03;102192.75;;;18.30
34125;BMP280;20110;53.120;5.786;2023-11-21T13:55:50;102182.78;;;18.53
34125;BMP280;20110;53.120;5.786;2023-11-21T13:58:17;102197.00;;;18.69
34125;BMP280;20110;53.120;5.786;2023-11-21T14:00:49;102164.97;;;18.35
34125;BMP280;20110;53.120;5.786;2023-11-21T14:03:22;102201.41;;;18.36
34125;BMP280;20110;53.120;5.786;2023-11-21T14:05:50;102178.78;;;17.95
34125;BMP280;20110;53.120;5.786;2023-11-21T14:08:22;102190.00;;;17.86
34125;BMP280;20110;53.120;5.786;2023-11-21T14:10:54;102218.41;;;17.74
34125;BMP280;20110;53.120;5.786;2023-11-21T14:13:25;102202.97;;;17.46
34125;BMP280;20110;53.120;5.786;2023-11-21T14:15:51;102229.78;;;17.39
34125;BMP280;20110;53.120;5.786;2023-11-21T14:18:25;102230.53;;;17.26